Time;durP1;ratioP1;P1;durP2;ratioP2;P2;SDS_P1;SDS_P2;PMS_P1;PMS_P2;Temp;Humidity;BMP_temperature;BMP_pressure;BME280_temperature;BME280_humidity;BME280_pressure;Samples;Min_cycle;Max_cycle;Signal;HPM_P1;HPM_P2
2022/10/18 00:00:52;;;;;;;4.90;4.50;;;17.50;99.90;;;;;;5220480;28;20535;-49
2022/10/18 00:03:23;;;;;;;5.40;4.90;;;17.40;99.90;;;;;;5225858;28;20179;-51
2022/10/18 00:05:53;;;;;;;5.60;5.10;;;17.50;99.90;;;;;;5224497;28;20183;-52
2022/10/18 00:08:24;;;;;;;9.43;4.97;;;17.50;99.90;;;;;;5205850;28;20460;-51
2022/10/18 00:10:55;;;;;;;3.63;3.43;;;17.50;99.90;;;;;;5214557;28;20273;-53
2022/10/18 00:13:26;;;;;;;4.57;4.17;;;17.40;99.90;;;;;;5217897;28;20537;-53
2022/10/18 00:15:59;;;;;;;3.77;3.57;;;17.40;99.90;;;;;;5196131;28;20214;-52
2022/10/18 00:18:29;;;;;;;4.70;4.30;;;17.30;99.90;;;;;;5217228;28;20277;-52
2022/10/18 00:21:03;;;;;;;4.10;3.27;;;17.30;99.90;;;;;;5213524;28;20583;-52
2022/10/18 00:23:34;;;;;;;7.80;5.90;;;17.30;99.90;;;;;;5223094;28;20191;-51
2022/10/18 00:26:06;;;;;;;9.63;6.93;;;17.30;99.90;;;;;;5221637;28;20432;-51
2022/10/18 00:28:40;;;;;;;6.70;6.20;;;17.30;99.90;;;;;;5225707;28;20223;-53
2022/10/18 00:31:15;;;;;;;12.30;6.40;;;17.30;99.90;;;;;;5235827;28;20443;-53
2022/10/18 00:33:49;;;;;;;10.97;6.40;;;17.40;99.90;;;;;;5235598;28;20463;-51
2022/10/18 00:36:20;;;;;;;12.80;7.17;;;17.40;99.90;;;;;;5236804;28;20757;-52
2022/10/18 00:38:51;;;;;;;8.97;6.70;;;17.40;99.90;;;;;;5254440;28;20457;-51
2022/10/18 00:41:26;;;;;;;7.53;6.73;;;17.40;99.90;;;;;;5230502;28;20425;-50
2022/10/18 00:44:04;;;;;;;11.47;7.67;;;17.40;99.90;;;;;;5234953;28;20642;-52
2022/10/18 00:46:37;;;;;;;10.30;7.77;;;17.40;99.90;;;;;;5229718;28;20444;-50
2022/10/18 00:49:11;;;;;;;7.97;7.20;;;17.40;99.90;;;;;;5237745;28;20961;-51
2022/10/18 00:51:46;;;;;;;9.00;7.40;;;17.50;99.90;;;;;;5236360;28;20460;-52
2022/10/18 00:54:19;;;;;;;10.53;8.27;;;17.40;99.90;;;;;;5236162;28;20433;-54
2022/10/18 00:56:50;;;;;;;14.80;9.23;;;17.40;99.90;;;;;;5235061;28;20433;-51
2022/10/18 00:59:21;;;;;;;14.53;7.97;;;17.40;99.90;;;;;;5235460;28;20538;-55
2022/10/18 01:01:52;;;;;;;11.20;8.30;;;17.40;99.90;;;;;;5222523;28;20648;-52
2022/10/18 01:04:23;;;;;;;12.17;8.63;;;17.40;99.90;;;;;;5224076;28;20187;-52
2022/10/18 01:07:24;;;;;;;9.27;8.37;;;17.30;99.90;;;;;;5221710;28;20237;-52
2022/10/18 01:09:55;;;;;;;19.67;8.10;;;17.30;99.90;;;;;;5220121;28;20214;-47
2022/10/18 01:12:58;;;;;;;12.80;9.10;;;17.30;99.90;;;;;;5224231;28;20468;-52
2022/10/18 01:15:35;;;;;;;9.40;7.87;;;17.30;99.90;;;;;;5217074;28;20693;-51
2022/10/18 01:18:31;;;;;;;13.03;8.27;;;17.30;99.90;;;;;;5218704;28;20461;-52
2022/10/18 01:21:02;;;;;;;9.30;8.13;;;17.30;99.90;;;;;;5240915;28;20945;-52
2022/10/18 01:24:03;;;;;;;8.83;7.50;;;17.30;99.90;;;;;;5227921;28;20478;-51
2022/10/18 01:26:53;;;;;;;13.53;8.30;;;17.40;99.90;;;;;;5223196;28;20186;-49
2022/10/18 01:29:51;;;;;;;12.67;8.33;;;17.30;99.90;;;;;;5222812;28;20461;-52
2022/10/18 01:32:29;;;;;;;13.53;9.93;;;17.40;99.90;;;;;;5214052;28;20480;-50
2022/10/18 01:35:09;;;;;;;11.43;8.70;;;17.40;99.90;;;;;;5225076;28;20778;-52
2022/10/18 01:37:44;;;;;;;16.30;9.17;;;17.30;99.90;;;;;;5226513;28;20438;-51
2022/10/18 01:40:18;;;;;;;8.40;7.60;;;17.30;99.90;;;;;;5227438;28;20977;-52
2022/10/18 01:42:49;;;;;;;10.70;8.40;;;17.30;99.90;;;;;;5230032;28;20547;-50
2022/10/18 01:45:22;;;;;;;18.57;9.17;;;17.30;99.90;;;;;;5227333;28;20955;-52
2022/10/18 01:47:54;;;;;;;18.00;10.60;;;17.30;99.90;;;;;;5225623;28;20437;-53
2022/10/18 01:50:31;;;;;;;17.23;10.07;;;17.30;99.90;;;;;;5217962;28;20478;-52
2022/10/18 01:53:02;;;;;;;10.13;8.27;;;17.30;99.90;;;;;;5222052;28;20500;-52
2022/10/18 01:55:39;;;;;;;11.63;9.13;;;17.30;99.90;;;;;;5223410;28;20466;-50
2022/10/18 01:58:35;;;;;;;18.00;8.97;;;17.30;99.90;;;;;;5223961;28;20193;-53
2022/10/18 02:01:28;;;;;;;11.70;8.83;;;17.20;99.90;;;;;;5222543;28;20416;-52
2022/10/18 02:04:12;;;;;;;9.63;8.73;;;17.20;99.90;;;;;;5219877;28;20441;-52
2022/10/18 02:06:44;;;;;;;12.90;9.57;;;17.30;99.90;;;;;;5210826;28;20426;-52
2022/10/18 02:09:32;;;;;;;13.37;10.33;;;17.30;99.90;;;;;;5223427;28;20548;-51
2022/10/18 02:12:06;;;;;;;11.20;9.53;;;17.20;99.90;;;;;;5224281;28;20477;-52
2022/10/18 02:14:38;;;;;;;11.33;10.20;;;17.20;99.90;;;;;;5220328;28;20844;-53
2022/10/18 02:17:11;;;;;;;10.80;9.70;;;17.20;99.90;;;;;;5223542;28;20448;-53
2022/10/18 02:19:49;;;;;;;17.73;9.27;;;17.20;99.90;;;;;;5225932;28;20818;-51
2022/10/18 02:22:24;;;;;;;13.37;8.83;;;17.20;99.90;;;;;;5226000;28;20425;-50
2022/10/18 02:25:01;;;;;;;14.20;10.40;;;17.30;99.90;;;;;;5230817;28;20452;-50
2022/10/18 02:27:32;;;;;;;9.67;8.87;;;17.30;99.90;;;;;;5226371;28;20433;-51
2022/10/18 02:30:04;;;;;;;14.57;10.97;;;17.20;99.90;;;;;;5221534;28;20523;-51
2022/10/18 02:32:43;;;;;;;13.60;9.70;;;17.20;99.90;;;;;;5219589;28;20211;-52
2022/10/18 02:35:23;;;;;;;17.10;8.97;;;17.20;99.90;;;;;;5221703;28;20434;-51
2022/10/18 02:37:56;;;;;;;10.73;8.43;;;17.20;99.90;;;;;;5221943;28;20445;-50
2022/10/18 02:40:28;;;;;;;13.13;9.40;;;17.10;99.90;;;;;;5225139;28;20441;-51
2022/10/18 02:42:58;;;;;;;10.70;9.67;;;17.10;99.90;;;;;;5226030;28;20430;-53
2022/10/18 02:45:29;;;;;;;10.50;9.00;;;17.10;99.90;;;;;;5225439;28;20511;-52
2022/10/18 02:48:00;;;;;;;17.80;9.43;;;17.00;99.90;;;;;;5222903;28;20575;-50
2022/10/18 02:50:30;;;;;;;13.00;10.30;;;17.00;99.90;;;;;;5219832;28;20607;-52
2022/10/18 02:53:01;;;;;;;12.40;9.90;;;17.00;99.90;;;;;;5229576;28;20230;-51
2022/10/18 02:55:32;;;;;;;16.33;8.67;;;17.00;99.90;;;;;;5231647;28;20183;-51
2022/10/18 02:58:03;;;;;;;9.40;8.40;;;17.00;99.90;;;;;;5232217;28;20666;-49
2022/10/18 03:00:33;;;;;;;12.10;9.50;;;17.00;99.90;;;;;;5231508;28;20445;-52
2022/10/18 03:03:04;;;;;;;9.53;8.57;;;17.00;99.90;;;;;;5231531;28;20202;-51
2022/10/18 03:05:34;;;;;;;10.33;9.30;;;17.00;99.90;;;;;;5232198;28;20190;-52
2022/10/18 03:08:05;;;;;;;9.10;8.10;;;17.00;99.90;;;;;;5228403;28;20198;-51
2022/10/18 03:10:35;;;;;;;12.10;9.70;;;17.00;99.90;;;;;;5231404;28;20282;-52
2022/10/18 03:13:06;;;;;;;11.70;8.40;;;17.00;99.90;;;;;;5235281;28;20214;-52
2022/10/18 03:15:37;;;;;;;16.33;9.40;;;17.00;99.90;;;;;;5235509;28;20186;-52
2022/10/18 03:18:08;;;;;;;8.43;7.63;;;17.00;99.90;;;;;;5234147;28;20218;-52
2022/10/18 03:20:39;;;;;;;10.73;8.17;;;17.00;99.90;;;;;;5229812;28;20639;-50
2022/10/18 03:23:10;;;;;;;10.47;8.57;;;17.00;99.90;;;;;;5230602;28;20864;-53
2022/10/18 03:25:40;;;;;;;18.07;8.27;;;17.00;99.90;;;;;;5229953;28;20438;-52
2022/10/18 03:28:11;;;;;;;15.37;9.77;;;17.00;99.90;;;;;;5232601;28;20556;-52
2022/10/18 03:30:41;;;;;;;10.20;8.00;;;16.90;99.90;;;;;;5229206;28;20191;-50
2022/10/18 03:33:12;;;;;;;10.17;7.93;;;16.90;99.90;;;;;;5234018;28;20213;-49
2022/10/18 03:35:42;;;;;;;8.30;7.50;;;16.80;99.90;;;;;;5232776;28;20281;-48
2022/10/18 03:38:13;;;;;;;9.83;8.83;;;16.80;99.90;;;;;;5230832;28;20186;-50
2022/10/18 03:40:43;;;;;;;11.70;9.03;;;16.70;99.90;;;;;;5237453;28;20206;-50
2022/10/18 03:43:14;;;;;;;12.00;9.93;;;16.80;99.90;;;;;;5229583;28;20183;-52
2022/10/18 03:45:45;;;;;;;11.37;8.50;;;16.70;99.90;;;;;;5232569;28;20187;-51
2022/10/18 03:48:17;;;;;;;10.33;8.97;;;16.80;99.90;;;;;;5231539;28;20248;-49
2022/10/18 03:50:48;;;;;;;10.43;8.40;;;16.80;99.90;;;;;;5231731;28;20198;-51
2022/10/18 03:53:18;;;;;;;8.97;8.07;;;16.70;99.90;;;;;;5233762;28;20961;-52
2022/10/18 03:55:53;;;;;;;15.90;9.00;;;16.70;99.90;;;;;;5231587;28;20794;-52
2022/10/18 03:58:23;;;;;;;10.23;8.30;;;16.60;99.90;;;;;;5229178;28;20275;-50
2022/10/18 04:00:54;;;;;;;11.60;9.93;;;16.50;99.90;;;;;;5222073;28;20936;-53
2022/10/18 04:03:25;;;;;;;12.77;9.90;;;16.40;99.90;;;;;;5220217;28;20225;-52
2022/10/18 04:05:56;;;;;;;11.73;8.80;;;16.30;99.90;;;;;;5219900;28;20247;-51
2022/10/18 04:08:26;;;;;;;9.23;8.37;;;16.20;99.90;;;;;;5230552;28;20726;-51
2022/10/18 04:10:57;;;;;;;9.30;8.33;;;16.10;99.90;;;;;;5225411;28;20184;-50
2022/10/18 04:13:27;;;;;;;11.43;9.20;;;16.00;99.90;;;;;;5225682;28;20210;-48
2022/10/18 04:15:58;;;;;;;12.47;9.47;;;16.00;99.90;;;;;;5230701;28;20278;-52
2022/10/18 04:18:28;;;;;;;10.10;9.03;;;16.00;99.90;;;;;;5219776;28;20199;-49
2022/10/18 04:20:59;;;;;;;12.07;9.07;;;16.00;99.90;;;;;;5226519;28;20623;-52
2022/10/18 04:23:29;;;;;;;11.30;9.43;;;15.90;99.90;;;;;;5219381;28;20660;-52
2022/10/18 04:26:00;;;;;;;10.00;8.93;;;15.90;99.90;;;;;;5222002;28;21608;-52
2022/10/18 04:28:32;;;;;;;11.30;8.97;;;15.90;99.90;;;;;;5228625;28;20256;-50
2022/10/18 04:31:03;;;;;;;10.83;8.87;;;15.80;99.90;;;;;;5230405;28;20197;-52
2022/10/18 04:33:33;;;;;;;15.50;8.37;;;15.80;99.90;;;;;;5226192;28;20969;-52
2022/10/18 04:36:04;;;;;;;10.00;8.83;;;15.80;99.90;;;;;;5218922;28;20225;-51
2022/10/18 04:38:35;;;;;;;9.43;7.90;;;15.70;99.90;;;;;;5220350;28;20230;-52
2022/10/18 04:41:05;;;;;;;10.60;9.10;;;15.70;99.90;;;;;;5214825;28;20182;-51
2022/10/18 04:43:36;;;;;;;8.47;7.40;;;15.70;99.90;;;;;;5227615;28;20221;-51
2022/10/18 04:46:06;;;;;;;9.10;8.30;;;15.70;99.90;;;;;;5222697;28;20612;-55
2022/10/18 04:48:37;;;;;;;8.50;7.73;;;15.60;99.90;;;;;;5224967;28;20764;-52
2022/10/18 04:51:08;;;;;;;8.13;7.43;;;15.60;99.90;;;;;;5218786;28;20190;-51
2022/10/18 04:53:38;;;;;;;9.23;7.83;;;15.60;99.90;;;;;;5221210;28;20572;-51
2022/10/18 04:56:09;;;;;;;9.13;8.30;;;15.60;99.90;;;;;;5224830;28;20183;-52
2022/10/18 04:58:40;;;;;;;8.77;7.93;;;15.60;99.90;;;;;;5220163;28;20221;-50
2022/10/18 05:01:10;;;;;;;10.73;8.80;;;15.60;99.90;;;;;;5228346;28;20597;-51
2022/10/18 05:03:41;;;;;;;9.30;8.40;;;15.60;99.90;;;;;;5213085;28;20191;-51
2022/10/18 05:06:11;;;;;;;10.47;9.30;;;15.50;99.90;;;;;;5225084;28;20225;-51
2022/10/18 05:08:42;;;;;;;10.40;9.37;;;15.50;99.90;;;;;;5216610;28;20208;-51
2022/10/18 05:11:13;;;;;;;11.60;9.07;;;15.50;99.90;;;;;;5225978;28;20187;-48
2022/10/18 05:13:43;;;;;;;9.07;8.27;;;15.50;99.90;;;;;;5224493;28;20249;-49
2022/10/18 05:16:14;;;;;;;12.23;9.20;;;15.50;99.90;;;;;;5221039;28;20433;-52
2022/10/18 05:18:45;;;;;;;10.37;8.57;;;15.50;99.90;;;;;;5228284;28;20202;-51
2022/10/18 05:21:16;;;;;;;17.37;10.57;;;15.50;99.90;;;;;;5218622;28;20433;-52
2022/10/18 05:23:46;;;;;;;10.40;8.80;;;15.50;99.90;;;;;;5223939;28;20187;-51
2022/10/18 05:26:17;;;;;;;12.30;9.10;;;15.50;99.90;;;;;;5221956;28;20195;-51
2022/10/18 05:28:50;;;;;;;15.23;9.20;;;15.50;99.90;;;;;;5225490;28;20242;-52
2022/10/18 05:31:21;;;;;;;10.30;8.83;;;15.40;99.90;;;;;;5224783;28;20186;-52
2022/10/18 05:33:52;;;;;;;15.00;10.50;;;15.40;99.90;;;;;;5227152;28;21048;-52
2022/10/18 05:36:24;;;;;;;19.60;10.03;;;15.40;99.90;;;;;;5223562;28;20183;-50
2022/10/18 05:38:55;;;;;;;10.80;8.83;;;15.40;99.90;;;;;;5225465;28;20293;-52
2022/10/18 05:41:26;;;;;;;21.50;9.37;;;15.40;99.90;;;;;;5209685;28;21041;-52
2022/10/18 05:43:56;;;;;;;14.80;11.37;;;15.40;99.90;;;;;;5223661;28;20248;-55
2022/10/18 05:46:27;;;;;;;13.50;10.77;;;15.40;99.90;;;;;;5225998;28;20234;-53
2022/10/18 05:48:57;;;;;;;14.90;10.67;;;15.40;99.90;;;;;;5222306;28;20222;-50
2022/10/18 05:51:28;;;;;;;13.30;9.97;;;15.40;99.90;;;;;;5221923;28;20193;-51
2022/10/18 05:53:59;;;;;;;14.53;11.20;;;15.40;99.90;;;;;;5206277;28;20207;-51
2022/10/18 05:56:30;;;;;;;15.70;12.03;;;15.30;99.90;;;;;;5225238;28;20210;-52
2022/10/18 05:59:01;;;;;;;14.73;11.37;;;15.40;99.90;;;;;;5226603;28;20987;-52
2022/10/18 06:01:32;;;;;;;14.10;12.17;;;15.40;99.90;;;;;;5227591;28;20217;-49
2022/10/18 06:04:03;;;;;;;21.80;10.20;;;15.30;99.90;;;;;;5224813;28;20459;-53
2022/10/18 06:06:33;;;;;;;19.23;12.00;;;15.30;99.90;;;;;;5228834;28;20257;-52
2022/10/18 06:09:06;;;;;;;14.43;12.10;;;15.30;99.90;;;;;;5227314;28;20202;-50
2022/10/18 06:11:36;;;;;;;10.80;9.77;;;15.30;99.90;;;;;;5223788;28;20184;-51
2022/10/18 06:14:08;;;;;;;17.30;11.03;;;15.30;99.90;;;;;;5222664;28;20761;-51
2022/10/18 06:16:39;;;;;;;15.83;13.83;;;15.30;99.90;;;;;;5223965;28;20266;-52
2022/10/18 06:19:09;;;;;;;22.30;12.97;;;15.30;99.90;;;;;;5229684;28;20543;-52
2022/10/18 06:21:40;;;;;;;13.63;11.33;;;15.20;99.90;;;;;;5228345;28;20179;-52
2022/10/18 06:24:10;;;;;;;15.20;10.30;;;15.20;99.90;;;;;;5226964;28;20237;-50
2022/10/18 06:26:41;;;;;;;13.27;10.30;;;15.20;99.90;;;;;;5226064;28;20334;-51
2022/10/18 06:29:12;;;;;;;11.23;10.00;;;15.20;99.90;;;;;;5189585;28;20222;-52
2022/10/18 06:31:42;;;;;;;18.70;12.60;;;15.20;99.90;;;;;;5224571;28;20625;-51
2022/10/18 06:34:13;;;;;;;15.00;11.00;;;15.30;99.90;;;;;;5220579;28;20250;-53
2022/10/18 06:36:43;;;;;;;22.73;14.03;;;15.30;99.90;;;;;;5219758;28;20209;-51
2022/10/18 06:39:14;;;;;;;17.93;13.60;;;15.20;99.90;;;;;;5221360;28;20256;-53
2022/10/18 06:41:44;;;;;;;20.67;12.60;;;15.20;99.90;;;;;;5223026;28;20187;-52
2022/10/18 06:44:16;;;;;;;15.10;10.70;;;15.20;99.90;;;;;;5222097;28;20273;-53
2022/10/18 06:46:48;;;;;;;15.00;9.50;;;15.10;99.90;;;;;;5226920;28;20244;-52
2022/10/18 06:49:19;;;;;;;10.43;9.30;;;15.10;99.90;;;;;;5224978;28;20810;-51
2022/10/18 06:51:49;;;;;;;21.50;12.63;;;15.10;99.90;;;;;;5222997;28;20440;-53
2022/10/18 06:54:20;;;;;;;26.90;15.60;;;15.10;99.90;;;;;;5204403;28;20802;-53
2022/10/18 06:56:55;;;;;;;19.17;11.70;;;15.20;99.90;;;;;;5225227;28;20194;-52
2022/10/18 06:59:26;;;;;;;14.53;10.40;;;15.20;99.90;;;;;;5223092;28;20203;-51
2022/10/18 07:01:56;;;;;;;16.20;11.33;;;15.30;99.90;;;;;;5226346;28;20804;-54
2022/10/18 07:04:29;;;;;;;14.60;10.50;;;15.30;99.90;;;;;;5221644;28;20233;-52
2022/10/18 07:06:59;;;;;;;15.40;10.00;;;15.30;99.90;;;;;;5225069;28;20555;-54
2022/10/18 07:09:30;;;;;;;14.60;9.60;;;15.30;99.90;;;;;;5220856;28;20468;-52
2022/10/18 07:12:00;;;;;;;15.03;10.20;;;15.30;99.90;;;;;;5222064;28;20651;-50
2022/10/18 07:14:31;;;;;;;19.30;11.33;;;15.30;99.90;;;;;;5221518;28;20639;-50
2022/10/18 07:17:01;;;;;;;20.50;13.10;;;15.40;99.90;;;;;;5226251;28;20668;-50
2022/10/18 07:19:32;;;;;;;26.33;12.50;;;15.50;99.90;;;;;;5226267;28;20671;-53
2022/10/18 07:22:03;;;;;;;21.13;12.73;;;15.50;99.90;;;;;;5222113;28;20577;-53
2022/10/18 07:24:33;;;;;;;19.73;11.90;;;15.50;99.90;;;;;;5221304;28;20206;-55
2022/10/18 07:27:04;;;;;;;15.40;11.70;;;15.50;99.90;;;;;;5223531;28;20295;-51
2022/10/18 07:29:37;;;;;;;20.30;11.33;;;15.60;99.90;;;;;;5221300;28;20207;-53
2022/10/18 07:32:07;;;;;;;14.93;10.33;;;15.70;99.90;;;;;;5221004;28;20675;-52
2022/10/18 07:34:38;;;;;;;14.73;10.47;;;15.60;99.90;;;;;;5226241;28;20423;-52
2022/10/18 07:37:08;;;;;;;13.03;10.10;;;15.70;99.90;;;;;;5218817;28;20257;-53
2022/10/18 07:39:39;;;;;;;16.00;10.60;;;15.70;99.90;;;;;;5218900;28;20231;-54
2022/10/18 07:42:09;;;;;;;15.17;9.20;;;15.70;99.90;;;;;;5219782;28;20189;-54
2022/10/18 07:44:40;;;;;;;17.87;10.70;;;15.70;99.90;;;;;;5225382;28;20183;-54
2022/10/18 07:47:11;;;;;;;12.87;9.37;;;15.60;99.90;;;;;;5225309;28;20564;-52
2022/10/18 07:49:41;;;;;;;15.00;9.30;;;15.60;99.90;;;;;;5224492;28;20601;-52
2022/10/18 07:52:12;;;;;;;15.73;10.30;;;15.60;99.90;;;;;;5224723;28;20214;-53
2022/10/18 07:54:42;;;;;;;10.57;8.50;;;15.60;99.90;;;;;;5224827;28;20647;-52
2022/10/18 07:57:13;;;;;;;12.23;9.63;;;15.70;99.90;;;;;;5222623;28;20254;-49
2022/10/18 07:59:46;;;;;;;10.17;8.97;;;15.70;99.90;;;;;;5222656;28;20204;-52
2022/10/18 08:02:17;;;;;;;10.50;8.90;;;15.70;99.90;;;;;;5222287;28;20679;-53
2022/10/18 08:04:48;;;;;;;10.73;9.67;;;15.70;99.90;;;;;;5219189;28;20500;-52
2022/10/18 08:07:18;;;;;;;13.73;10.40;;;15.60;99.90;;;;;;5225241;28;20274;-52
2022/10/18 08:09:49;;;;;;;12.70;10.23;;;15.60;99.90;;;;;;5224791;28;20655;-53
2022/10/18 08:12:19;;;;;;;11.33;9.80;;;15.60;99.90;;;;;;5220386;28;20752;-53
2022/10/18 08:14:50;;;;;;;14.07;10.00;;;15.50;99.90;;;;;;5220162;28;20179;-52
2022/10/18 08:17:20;;;;;;;13.70;9.70;;;15.60;99.90;;;;;;5223970;28;20179;-53
2022/10/18 08:19:51;;;;;;;12.03;9.80;;;15.60;99.90;;;;;;5222572;28;20559;-52
2022/10/18 08:22:21;;;;;;;15.87;10.70;;;15.60;99.90;;;;;;5223712;28;20183;-51
2022/10/18 08:24:52;;;;;;;14.30;10.80;;;15.60;99.90;;;;;;5222784;28;20205;-51
2022/10/18 08:27:25;;;;;;;17.10;10.83;;;15.60;99.90;;;;;;5224048;28;20186;-52
2022/10/18 08:29:55;;;;;;;20.17;13.67;;;15.60;99.90;;;;;;5222107;28;20201;-53
2022/10/18 08:32:27;;;;;;;13.90;11.03;;;15.60;99.90;;;;;;5225268;28;20532;-52
2022/10/18 08:34:57;;;;;;;14.73;10.60;;;15.60;99.90;;;;;;5223639;28;20198;-53
2022/10/18 08:37:28;;;;;;;22.20;10.63;;;15.50;99.90;;;;;;5222625;28;20853;-54
2022/10/18 08:39:58;;;;;;;18.47;10.53;;;15.50;99.90;;;;;;5217290;28;20203;-51
2022/10/18 08:42:48;;;;;;;13.10;9.83;;;15.50;99.90;;;;;;5215623;28;20271;-48
2022/10/18 08:45:18;;;;;;;17.53;10.93;;;15.60;99.90;;;;;;5214081;28;20533;-53
2022/10/18 08:47:52;;;;;;;10.53;9.27;;;15.60;99.90;;;;;;5226672;28;20448;-53
2022/10/18 08:50:30;;;;;;;10.27;9.03;;;15.60;99.90;;;;;;5228106;28;20218;-52
2022/10/18 08:53:14;;;;;;;12.50;9.50;;;15.60;99.90;;;;;;5222407;28;20476;-51
2022/10/18 08:55:51;;;;;;;11.30;8.13;;;15.60;99.90;;;;;;5224671;28;20630;-53
2022/10/18 08:58:28;;;;;;;11.23;7.60;;;15.60;99.90;;;;;;5226213;28;20460;-53
2022/10/18 09:01:16;;;;;;;12.00;8.07;;;15.50;99.90;;;;;;5229511;28;20425;-52
2022/10/18 09:04:15;;;;;;;8.30;7.50;;;15.50;99.90;;;;;;5227598;28;20434;-54
2022/10/18 09:07:24;;;;;;;8.67;7.90;;;15.50;99.90;;;;;;5220063;28;20433;-53
2022/10/18 09:10:07;;;;;;;14.60;7.97;;;15.40;99.90;;;;;;5220528;28;20511;-53
2022/10/18 09:13:07;;;;;;;9.70;7.50;;;15.40;99.90;;;;;;5225440;28;20887;-52
2022/10/18 09:15:54;;;;;;;8.57;7.70;;;15.50;99.90;;;;;;5224853;28;20437;-52
2022/10/18 09:18:33;;;;;;;12.50;7.80;;;15.40;99.90;;;;;;5225823;28;20824;-53
2022/10/18 09:21:17;;;;;;;12.40;9.37;;;15.30;99.90;;;;;;5215545;28;20499;-52
2022/10/18 09:24:06;;;;;;;14.27;10.60;;;15.30;99.90;;;;;;5220286;28;20436;-54
2022/10/18 09:26:44;;;;;;;12.20;9.07;;;15.30;99.90;;;;;;5226088;28;20429;-52
2022/10/18 09:29:41;;;;;;;11.93;9.03;;;15.30;99.90;;;;;;5217532;28;20464;-52
2022/10/18 09:32:34;;;;;;;7.63;6.83;;;15.30;99.90;;;;;;5225450;28;20457;-53
2022/10/18 09:35:23;;;;;;;10.67;9.10;;;15.30;99.90;;;;;;5220795;28;20499;-52
2022/10/18 09:38:02;;;;;;;11.47;9.50;;;15.30;99.90;;;;;;5227553;28;20516;-52
2022/10/18 09:40:37;;;;;;;18.03;8.40;;;15.40;99.90;;;;;;5227770;28;20429;-52
2022/10/18 09:43:21;;;;;;;13.17;10.00;;;15.30;99.90;;;;;;5224263;28;20762;-52
2022/10/18 09:45:54;;;;;;;18.30;10.70;;;15.40;99.90;;;;;;5222202;28;20949;-53
2022/10/18 09:48:34;;;;;;;13.00;10.23;;;15.40;99.90;;;;;;5226076;28;20469;-53
2022/10/18 09:51:16;;;;;;;11.97;9.40;;;15.40;99.90;;;;;;5238813;22;20517;-55
2022/10/18 09:54:12;;;;;;;14.50;7.90;;;15.40;99.90;;;;;;5208046;28;20961;-54
2022/10/18 09:57:08;;;;;;;13.57;9.40;;;15.50;99.90;;;;;;5209425;28;20414;-54
2022/10/18 09:59:46;;;;;;;10.37;8.53;;;15.50;99.90;;;;;;5209876;28;20975;-56
2022/10/18 10:02:22;;;;;;;15.43;8.30;;;15.60;99.90;;;;;;5206612;28;20783;-55
2022/10/18 10:04:53;;;;;;;8.93;7.50;;;15.60;99.90;;;;;;5205276;28;20446;-55
2022/10/18 10:07:26;;;;;;;14.80;7.53;;;15.60;99.90;;;;;;5205291;28;20445;-54
2022/10/18 10:10:06;;;;;;;12.07;8.60;;;15.60;99.90;;;;;;5205593;28;20702;-55
2022/10/18 10:12:38;;;;;;;17.73;10.00;;;15.50;99.90;;;;;;5202740;28;20468;-54
2022/10/18 10:15:24;;;;;;;7.93;7.23;;;15.50;99.90;;;;;;5205078;28;20893;-55
2022/10/18 10:18:15;;;;;;;13.47;7.87;;;15.50;99.90;;;;;;5204229;28;20449;-54
2022/10/18 10:20:59;;;;;;;14.73;9.10;;;15.50;99.90;;;;;;5203598;28;20524;-54
2022/10/18 10:23:45;;;;;;;10.03;9.00;;;15.60;99.90;;;;;;5205181;28;20422;-54
2022/10/18 10:26:33;;;;;;;13.33;8.50;;;15.60;99.90;;;;;;5198078;28;20573;-55
2022/10/18 10:29:43;;;;;;;10.63;9.60;;;15.60;99.90;;;;;;5196406;28;20457;-53
2022/10/18 10:32:16;;;;;;;11.33;9.57;;;15.60;99.90;;;;;;5204502;28;20973;-55
2022/10/18 10:34:47;;;;;;;11.07;8.90;;;15.50;99.90;;;;;;5208644;28;20886;-55
2022/10/18 10:37:23;;;;;;;11.87;9.83;;;15.50;99.90;;;;;;5220583;28;20518;-55
2022/10/18 10:40:26;;;;;;;13.50;11.23;;;15.40;99.90;;;;;;5207732;28;20742;-54
2022/10/18 10:43:22;;;;;;;15.90;10.13;;;15.50;99.90;;;;;;5195295;28;20813;-56
2022/10/18 10:46:10;;;;;;;11.00;9.90;;;15.50;99.90;;;;;;5202600;28;20445;-55
2022/10/18 10:48:48;;;;;;;16.50;10.03;;;15.50;99.90;;;;;;5231479;28;20434;-55
2022/10/18 10:51:37;;;;;;;14.70;11.50;;;15.50;99.90;;;;;;5208453;28;20534;-55
2022/10/18 10:54:19;;;;;;;17.53;11.90;;;15.40;99.90;;;;;;5208373;28;20470;-55
2022/10/18 10:57:01;;;;;;;17.40;12.07;;;15.40;99.90;;;;;;5211941;28;20418;-54
2022/10/18 10:59:48;;;;;;;13.23;10.67;;;15.50;99.90;;;;;;5207437;28;20534;-56
2022/10/18 11:02:28;;;;;;;14.70;11.43;;;15.50;99.90;;;;;;5203374;28;20863;-56
2022/10/18 11:05:25;;;;;;;20.00;14.10;;;15.60;99.90;;;;;;5207249;28;20429;-54
2022/10/18 11:07:58;;;;;;;24.60;15.37;;;15.60;99.90;;;;;;5202359;28;20437;-55
2022/10/18 11:10:33;;;;;;;18.07;12.90;;;15.60;99.90;;;;;;5199347;28;20466;-55
2022/10/18 11:13:27;;;;;;;14.93;11.43;;;15.50;99.90;;;;;;5217114;28;20535;-55
2022/10/18 11:16:04;;;;;;;13.47;11.00;;;15.50;99.90;;;;;;5201070;28;20527;-55
2022/10/18 11:18:36;;;;;;;18.27;12.83;;;15.50;99.90;;;;;;5203793;28;20425;-54
2022/10/18 11:21:10;;;;;;;15.43;12.13;;;15.50;99.90;;;;;;5205784;28;20458;-55
2022/10/18 11:23:42;;;;;;;30.57;16.20;;;15.50;99.90;;;;;;5205445;28;20445;-54
2022/10/18 11:26:33;;;;;;;19.00;13.43;;;15.40;99.90;;;;;;5206829;28;20504;-55
2022/10/18 11:29:28;;;;;;;15.30;12.30;;;15.30;99.90;;;;;;5200455;28;20434;-54
2022/10/18 11:32:15;;;;;;;17.53;13.67;;;15.40;99.90;;;;;;5205979;28;20442;-54
2022/10/18 11:35:15;;;;;;;17.20;13.37;;;15.40;99.90;;;;;;5196437;28;20434;-55
2022/10/18 11:37:52;;;;;;;23.00;13.70;;;15.50;99.90;;;;;;5185887;28;20438;-55
2022/10/18 11:40:47;;;;;;;17.20;12.83;;;15.50;99.90;;;;;;5213120;28;20801;-56
2022/10/18 11:43:35;;;;;;;28.77;13.87;;;15.50;99.90;;;;;;5215745;28;20521;-56
2022/10/18 11:46:17;;;;;;;23.33;11.50;;;15.40;99.90;;;;;;5198942;28;20444;-55
2022/10/18 11:48:54;;;;;;;18.27;13.03;;;15.40;99.90;;;;;;5203169;28;20739;-54
2022/10/18 11:51:49;;;;;;;18.53;12.30;;;15.50;99.90;;;;;;5201034;28;20466;-55
2022/10/18 11:54:34;;;;;;;18.20;13.20;;;15.60;99.90;;;;;;5204221;28;20447;-56
2022/10/18 11:57:35;;;;;;;15.43;12.03;;;15.70;99.90;;;;;;5200193;28;20471;-55
2022/10/18 12:00:45;;;;;;;16.97;13.73;;;15.80;99.90;;;;;;5195784;28;20817;-55
2022/10/18 12:03:56;;;;;;;19.27;12.40;;;15.90;99.90;;;;;;5200917;28;20790;-55
2022/10/18 12:06:33;;;;;;;13.80;11.43;;;15.80;99.90;;;;;;5196258;28;20546;-55
2022/10/18 12:09:15;;;;;;;17.60;13.50;;;15.80;99.90;;;;;;5218439;28;20953;-54
2022/10/18 12:11:57;;;;;;;25.43;16.07;;;15.80;99.90;;;;;;5194223;28;20432;-54
2022/10/18 12:14:44;;;;;;;16.10;11.77;;;15.80;99.90;;;;;;5203234;28;20441;-56
2022/10/18 12:17:26;;;;;;;14.37;11.50;;;15.80;99.90;;;;;;5216401;28;20486;-55
2022/10/18 12:20:05;;;;;;;11.07;9.43;;;15.80;99.90;;;;;;5215510;28;20538;-54
2022/10/18 12:22:41;;;;;;;10.73;8.93;;;15.80;99.90;;;;;;5218115;28;20771;-54
2022/10/18 12:25:14;;;;;;;15.37;10.20;;;15.70;99.90;;;;;;5221171;28;20436;-54
2022/10/18 12:28:00;;;;;;;12.47;11.17;;;15.60;99.90;;;;;;5206488;28;20434;-55
2022/10/18 12:30:48;;;;;;;16.90;11.10;;;15.70;99.90;;;;;;5202145;28;20543;-55
2022/10/18 12:33:25;;;;;;;10.20;8.77;;;15.70;99.90;;;;;;5205230;28;20517;-55
2022/10/18 12:36:20;;;;;;;12.00;10.70;;;15.60;99.90;;;;;;5206216;28;20469;-55
2022/10/18 12:39:01;;;;;;;12.20;9.40;;;15.70;99.90;;;;;;5203468;28;20414;-55
2022/10/18 12:41:34;;;;;;;13.53;10.60;;;15.70;99.90;;;;;;5201545;28;20512;-55
2022/10/18 12:44:29;;;;;;;14.50;11.17;;;15.70;99.90;;;;;;5207726;28;20465;-55
2022/10/18 12:47:02;;;;;;;10.70;9.30;;;15.80;99.90;;;;;;5205921;28;20473;-55
2022/10/18 12:49:37;;;;;;;13.60;10.87;;;15.80;99.90;;;;;;5207486;28;20988;-56
2022/10/18 12:52:29;;;;;;;12.23;9.40;;;15.80;99.90;;;;;;5207280;28;20437;-54
2022/10/18 12:55:12;;;;;;;11.97;9.60;;;15.80;99.90;;;;;;5221283;28;21061;-55
2022/10/18 12:57:52;;;;;;;15.03;10.87;;;15.80;99.90;;;;;;5212191;28;20431;-55
2022/10/18 13:00:28;;;;;;;12.73;11.00;;;15.90;99.90;;;;;;5205668;28;20450;-55
2022/10/18 13:03:08;;;;;;;12.20;10.93;;;16.00;99.90;;;;;;5207348;28;20441;-54
2022/10/18 13:05:51;;;;;;;10.80;9.70;;;16.00;99.90;;;;;;5221774;28;20792;-54
2022/10/18 13:08:32;;;;;;;15.50;12.90;;;16.00;99.90;;;;;;5217885;28;20445;-55
2022/10/18 13:11:11;;;;;;;14.07;12.00;;;16.10;99.90;;;;;;5198954;28;20474;-55
2022/10/18 13:13:51;;;;;;;13.33;11.83;;;16.10;99.90;;;;;;5206813;28;20485;-55
2022/10/18 13:16:21;;;;;;;13.93;11.40;;;16.10;99.90;;;;;;5216911;28;20438;-57
2022/10/18 13:18:54;;;;;;;16.50;11.73;;;16.10;99.90;;;;;;5205447;28;20431;-55
2022/10/18 13:21:42;;;;;;;17.37;12.93;;;16.00;99.90;;;;;;5199395;28;20207;-55